createdAt,value
2023-01-26T00:01:18.170Z,66.88
2023-01-26T00:03:48.856Z,68.40
2023-01-26T00:06:20.652Z,65.20
2023-01-26T00:08:54.060Z,71.07
2023-01-26T00:11:34.250Z,57.90
2023-01-26T00:14:04.117Z,70.93
2023-01-26T00:16:33.831Z,68.65
2023-01-26T00:19:05.113Z,64.97
2023-01-26T00:21:35.117Z,59.85
2023-01-26T00:24:06.265Z,62.88
2023-01-26T00:26:36.146Z,61.30
2023-01-26T00:29:05.733Z,60.03
2023-01-26T00:31:35.648Z,59.47
2023-01-26T00:34:05.406Z,64.45
2023-01-26T00:36:35.807Z,64.72
2023-01-26T00:39:06.072Z,58.92
2023-01-26T00:41:55.399Z,56.53
2023-01-26T00:44:25.286Z,62.80
2023-01-26T00:46:55.309Z,65.68
2023-01-26T00:49:25.180Z,68.88
2023-01-26T00:51:54.955Z,60.38
2023-01-26T00:54:25.668Z,59.58
2023-01-26T00:56:55.667Z,60.28
2023-01-26T00:59:25.859Z,60.20
2023-01-26T01:01:56.046Z,58.65
2023-01-26T01:04:26.119Z,59.05
2023-01-26T01:06:55.961Z,61.95
2023-01-26T01:09:26.260Z,55.42
2023-01-26T01:11:56.338Z,51.13
2023-01-26T01:14:26.228Z,53.88
2023-01-26T01:16:56.040Z,50.58
2023-01-26T01:19:26.190Z,46.30
2023-01-26T01:21:55.954Z,52.45
2023-01-26T01:24:25.832Z,47.03
2023-01-26T01:26:55.745Z,53.53
2023-01-26T01:29:25.649Z,48.38
2023-01-26T01:31:55.503Z,50.78
2023-01-26T01:34:25.405Z,56.85
2023-01-26T01:36:55.168Z,57.78
2023-01-26T01:39:24.995Z,56.90
2023-01-26T01:41:54.857Z,63.78
2023-01-26T01:44:26.473Z,67.63
2023-01-26T01:47:07.940Z,60.38
2023-01-26T01:49:46.197Z,73.25
2023-01-26T01:52:20.505Z,64.93
2023-01-26T01:55:03.769Z,65.22
2023-01-26T01:57:48.808Z,78.05
2023-01-26T02:00:23.249Z,68.25
2023-01-26T02:03:21.384Z,75.07
2023-01-26T02:08:45.219Z,84.68
2023-01-26T02:11:22.882Z,69.78
2023-01-26T02:13:53.818Z,69.72
2023-01-26T02:16:23.975Z,64.97
2023-01-26T02:18:53.958Z,82.97
2023-01-26T02:21:26.055Z,69.43
2023-01-26T02:24:22.792Z,61.45
2023-01-26T02:26:52.860Z,67.47
2023-01-26T02:29:23.276Z,66.22
2023-01-26T02:31:55.413Z,65.50
2023-01-26T02:34:26.905Z,66.75
2023-01-26T02:37:03.736Z,71.10
2023-01-26T02:40:03.242Z,68.00
2023-01-26T02:42:43.747Z,63.50
2023-01-26T02:45:17.662Z,64.03
2023-01-26T02:47:47.386Z,65.47
2023-01-26T02:50:17.805Z,62.97
2023-01-26T02:52:47.486Z,76.45
2023-01-26T02:55:24.178Z,64.38
2023-01-26T02:57:56.366Z,62.13
2023-01-26T03:00:28.895Z,62.97
2023-01-26T03:03:01.692Z,61.25
2023-01-26T03:05:32.036Z,60.28
2023-01-26T03:08:02.842Z,64.45
2023-01-26T03:10:32.859Z,71.53
2023-01-26T03:13:02.781Z,60.63
2023-01-26T03:15:52.469Z,56.22
2023-01-26T03:18:43.966Z,52.45
2023-01-26T03:21:37.248Z,53.20
2023-01-26T03:24:27.504Z,55.17
2023-01-26T03:27:16.937Z,55.05
2023-01-26T03:29:46.855Z,63.88
2023-01-26T03:32:16.800Z,53.10
2023-01-26T03:34:46.926Z,55.60
2023-01-26T03:37:16.861Z,59.60
2023-01-26T03:40:06.392Z,51.40
2023-01-26T03:42:56.427Z,60.95
2023-01-26T03:45:45.837Z,50.55
2023-01-26T03:48:35.525Z,54.35
2023-01-26T03:51:25.083Z,59.05
2023-01-26T03:54:14.468Z,50.10
2023-01-26T03:56:46.366Z,57.42
2023-01-26T03:59:18.407Z,53.58
2023-01-26T04:02:08.994Z,48.42
2023-01-26T04:04:58.231Z,51.33
2023-01-26T04:07:47.649Z,51.95
2023-01-26T04:10:17.774Z,47.47
2023-01-26T04:12:48.768Z,47.88
2023-01-26T04:15:38.458Z,52.97
2023-01-26T04:18:29.350Z,47.88
2023-01-26T04:21:18.826Z,57.08
2023-01-26T04:23:48.548Z,48.03
2023-01-26T04:26:19.001Z,51.72
2023-01-26T04:28:48.769Z,44.05
2023-01-26T04:31:18.677Z,49.10
2023-01-26T04:33:48.462Z,48.00
2023-01-26T04:36:18.340Z,44.28
2023-01-26T04:38:48.074Z,38.78
2023-01-26T04:41:18.025Z,46.95
2023-01-26T04:43:48.032Z,56.00
2023-01-26T04:46:18.419Z,46.35
2023-01-26T04:48:48.115Z,42.38
2023-01-26T04:51:21.880Z,35.17
2023-01-26T04:53:52.502Z,62.95
2023-01-26T04:56:29.404Z,49.20
2023-01-26T04:59:06.532Z,39.30
2023-01-26T05:01:36.424Z,36.40
2023-01-26T05:04:07.546Z,35.05
2023-01-26T05:06:37.379Z,39.42
2023-01-26T05:09:07.459Z,38.28
2023-01-26T05:11:37.155Z,38.80
2023-01-26T05:14:07.019Z,32.92
2023-01-26T05:16:36.757Z,36.65
2023-01-26T05:19:06.569Z,35.28
2023-01-26T05:21:36.429Z,36.65
2023-01-26T05:24:06.177Z,33.90
2023-01-26T05:26:35.940Z,37.00
2023-01-26T05:29:06.220Z,34.85
2023-01-26T05:31:35.989Z,38.30
2023-01-26T05:34:05.681Z,33.42
2023-01-26T05:36:35.492Z,30.38
2023-01-26T05:39:05.348Z,37.50
2023-01-26T05:41:35.089Z,29.83
2023-01-26T05:44:04.988Z,33.28
2023-01-26T05:46:34.721Z,30.60
2023-01-26T05:49:04.565Z,33.95
2023-01-26T05:51:34.445Z,32.90
2023-01-26T05:54:04.358Z,33.58
2023-01-26T05:56:34.244Z,130.85
2023-01-26T05:59:04.751Z,33.25
2023-01-26T06:01:34.861Z,30.15
2023-01-26T06:04:05.068Z,30.92
2023-01-26T06:06:34.967Z,38.92
2023-01-26T06:09:04.745Z,32.13
2023-01-26T06:11:35.491Z,32.03
2023-01-26T06:14:05.659Z,36.53
2023-01-26T06:16:35.676Z,31.60
2023-01-26T06:19:05.769Z,28.25
2023-01-26T06:21:35.802Z,32.25
2023-01-26T06:24:06.271Z,27.48
2023-01-26T06:26:36.295Z,33.03
2023-01-26T06:29:06.230Z,29.70
2023-01-26T06:31:38.142Z,42.67
2023-01-26T06:34:08.028Z,32.00
2023-01-26T06:36:37.924Z,30.60
2023-01-26T06:39:07.788Z,31.13
2023-01-26T06:41:37.614Z,30.33
2023-01-26T06:44:11.161Z,30.88
2023-01-26T06:46:42.131Z,31.13
2023-01-26T06:49:12.489Z,32.22
2023-01-26T06:51:57.061Z,26.23
2023-01-26T06:54:26.730Z,32.85
2023-01-26T06:56:56.562Z,38.75
2023-01-26T06:59:27.675Z,25.30
2023-01-26T07:01:57.645Z,24.45
2023-01-26T07:04:29.347Z,34.05
2023-01-26T07:06:59.125Z,28.92
2023-01-26T07:09:28.909Z,26.25
2023-01-26T07:11:58.795Z,28.45
2023-01-26T07:14:28.603Z,21.20
2023-01-26T07:16:58.455Z,24.15
2023-01-26T07:19:28.405Z,27.13
2023-01-26T07:21:58.163Z,22.83
2023-01-26T07:24:28.173Z,24.73
2023-01-26T07:26:58.617Z,24.52
2023-01-26T07:29:28.380Z,28.77
2023-01-26T07:31:58.195Z,26.55
2023-01-26T07:34:28.146Z,23.55
2023-01-26T07:36:57.969Z,25.25
2023-01-26T07:39:28.633Z,25.10
2023-01-26T07:41:58.355Z,30.15
2023-01-26T07:44:28.151Z,27.80
2023-01-26T07:46:58.186Z,24.70
2023-01-26T07:49:27.981Z,20.13
2023-01-26T07:51:57.792Z,29.65
2023-01-26T07:54:27.605Z,23.23
2023-01-26T07:56:57.688Z,27.38
2023-01-26T07:59:28.210Z,29.90
2023-01-26T08:01:58.425Z,24.15
2023-01-26T08:04:28.397Z,24.77
2023-01-26T08:06:58.337Z,24.90
2023-01-26T08:09:28.462Z,24.77
2023-01-26T08:12:00.990Z,27.50
2023-01-26T08:14:45.115Z,31.75
2023-01-26T08:17:19.119Z,25.65
2023-01-26T08:19:49.358Z,29.65
2023-01-26T08:22:19.141Z,29.13
2023-01-26T08:24:49.008Z,29.25
2023-01-26T08:27:19.026Z,35.47
2023-01-26T08:29:48.776Z,35.35
2023-01-26T08:32:18.695Z,29.55
2023-01-26T08:34:48.647Z,24.83
2023-01-26T08:37:18.426Z,27.17
2023-01-26T08:39:48.291Z,24.25
2023-01-26T08:42:18.188Z,24.15
2023-01-26T08:44:47.911Z,24.85
2023-01-26T08:47:17.613Z,27.27
2023-01-26T08:49:47.364Z,29.65
2023-01-26T08:52:17.214Z,25.77
2023-01-26T08:54:46.809Z,27.98
2023-01-26T08:57:16.635Z,26.30
2023-01-26T08:59:46.486Z,24.02
2023-01-26T09:02:23.007Z,24.75
2023-01-26T09:04:53.101Z,30.17
2023-01-26T09:07:23.212Z,22.92
2023-01-26T09:09:53.087Z,24.58
2023-01-26T09:12:22.909Z,26.90
2023-01-26T09:14:52.885Z,27.52
2023-01-26T09:17:22.617Z,25.52
2023-01-26T09:19:52.489Z,30.52
2023-01-26T09:22:22.418Z,28.20
2023-01-26T09:24:52.470Z,22.63
2023-01-26T09:27:22.445Z,25.05
2023-01-26T09:29:52.331Z,26.52
2023-01-26T09:32:22.612Z,26.58
2023-01-26T09:34:52.408Z,20.60
2023-01-26T09:37:22.367Z,24.38
2023-01-26T09:39:52.460Z,23.25
2023-01-26T09:42:38.336Z,22.40
2023-01-26T09:45:28.852Z,24.20
2023-01-26T09:48:37.781Z,27.80
2023-01-26T09:51:24.902Z,25.40
2023-01-26T09:54:01.690Z,24.95
2023-01-26T09:56:34.748Z,24.05
2023-01-26T09:59:29.339Z,21.85
2023-01-26T10:02:39.765Z,24.45
2023-01-26T10:05:26.596Z,24.27
2023-01-26T10:07:56.507Z,27.73
2023-01-26T10:10:52.233Z,25.38
2023-01-26T10:13:24.221Z,23.27
2023-01-26T10:16:00.889Z,20.80
2023-01-26T10:18:43.120Z,25.17
2023-01-26T10:21:14.188Z,28.98
2023-01-26T10:23:50.521Z,22.98
2023-01-26T10:26:23.522Z,23.15
2023-01-26T10:28:56.641Z,23.17
2023-01-26T10:31:32.823Z,24.00
2023-01-26T10:34:23.899Z,22.75
2023-01-26T10:36:55.645Z,26.60
2023-01-26T10:39:25.518Z,25.80
2023-01-26T10:42:05.782Z,28.35
2023-01-26T10:44:41.856Z,23.40
2023-01-26T10:47:23.172Z,35.45
2023-01-26T10:49:53.271Z,36.30
2023-01-26T10:52:27.387Z,23.95
2023-01-26T10:55:15.041Z,25.98
2023-01-26T10:57:45.422Z,30.88
2023-01-26T11:00:35.156Z,23.38
2023-01-26T11:03:20.810Z,25.83
2023-01-26T11:06:16.463Z,23.80
2023-01-26T11:08:46.977Z,25.73
2023-01-26T11:11:36.347Z,22.85
2023-01-26T11:14:20.438Z,24.70
2023-01-26T11:17:14.832Z,26.25
2023-01-26T11:20:23.737Z,26.20
2023-01-26T11:23:08.663Z,30.65
2023-01-26T11:26:01.204Z,31.52
2023-01-26T11:28:49.344Z,28.25
2023-01-26T11:31:39.195Z,26.33
2023-01-26T11:34:42.259Z,29.10
2023-01-26T11:37:51.157Z,32.67
2023-01-26T11:41:01.012Z,37.55
2023-01-26T11:44:02.587Z,26.38
2023-01-26T11:47:11.430Z,31.95
2023-01-26T11:50:20.322Z,34.67
2023-01-26T11:53:24.284Z,34.13
2023-01-26T11:56:27.820Z,30.40
2023-01-26T11:59:07.798Z,27.58
2023-01-26T12:01:48.451Z,27.23
2023-01-26T12:04:24.369Z,29.70
2023-01-26T12:07:13.076Z,35.17
2023-01-26T12:09:54.732Z,31.75
2023-01-26T12:12:39.592Z,29.33
2023-01-26T12:15:19.945Z,33.78
2023-01-26T12:18:03.534Z,46.40
2023-01-26T12:21:00.137Z,30.00
2023-01-26T12:23:50.153Z,36.40
2023-01-26T12:26:23.498Z,38.20
2023-01-26T12:29:26.260Z,30.23
2023-01-26T12:32:12.401Z,35.17
2023-01-26T12:34:42.510Z,39.78
2023-01-26T12:37:44.529Z,55.78
2023-01-26T12:40:41.619Z,39.40
2023-01-26T12:43:43.697Z,44.63
2023-01-26T12:46:15.070Z,43.13
2023-01-26T12:48:51.051Z,45.30
2023-01-26T12:51:28.854Z,49.92
2023-01-26T12:54:22.946Z,49.83
2023-01-26T12:56:57.257Z,52.35
2023-01-26T12:59:48.196Z,52.63
2023-01-26T13:02:34.214Z,49.60
2023-01-26T13:05:06.802Z,53.08
2023-01-26T13:07:42.578Z,47.05
2023-01-26T13:10:28.143Z,47.97
2023-01-26T13:13:29.956Z,55.65
2023-01-26T13:16:35.322Z,47.13
2023-01-26T13:19:06.193Z,50.17
2023-01-26T13:21:47.519Z,45.75
2023-01-26T13:24:44.452Z,50.30
2023-01-26T13:27:36.575Z,50.53
2023-01-26T13:30:26.749Z,53.80
2023-01-26T13:33:24.766Z,50.70
2023-01-26T13:38:46.594Z,47.47
2023-01-26T13:41:22.449Z,47.63
2023-01-26T13:43:58.176Z,53.72
2023-01-26T13:46:54.604Z,61.97
2023-01-26T13:49:48.684Z,52.03
2023-01-26T13:52:23.719Z,56.90
2023-01-26T13:54:56.470Z,51.83
2023-01-26T13:57:32.190Z,60.67
2023-01-26T14:00:03.370Z,64.82
2023-01-26T14:02:38.829Z,51.75
2023-01-26T14:05:10.577Z,54.40
2023-01-26T14:07:51.753Z,48.75
2023-01-26T14:10:26.001Z,53.95
2023-01-26T14:13:00.677Z,48.67
2023-01-26T14:15:33.512Z,54.95
2023-01-26T14:18:06.983Z,71.75
2023-01-26T14:20:41.127Z,60.50
2023-01-26T14:23:23.082Z,63.08
2023-01-26T14:26:23.338Z,54.05
2023-01-26T14:28:53.503Z,61.75
2023-01-26T14:31:26.341Z,54.83
2023-01-26T14:34:00.442Z,54.88
2023-01-26T14:36:36.603Z,59.53
2023-01-26T14:39:22.630Z,47.60
2023-01-26T14:41:52.982Z,51.47
2023-01-26T14:44:22.699Z,53.97
2023-01-26T14:47:05.041Z,71.10
2023-01-26T14:49:47.294Z,53.42
2023-01-26T14:52:29.155Z,61.47
2023-01-26T14:55:05.898Z,60.70
2023-01-26T14:57:35.989Z,57.38
2023-01-26T15:00:11.730Z,46.72
2023-01-26T15:02:46.368Z,52.67
2023-01-26T15:05:24.205Z,43.85
2023-01-26T15:08:08.068Z,44.38
2023-01-26T15:10:45.991Z,48.22
2023-01-26T15:13:26.438Z,55.55
2023-01-26T15:16:09.848Z,39.65
2023-01-26T15:18:39.630Z,55.28
2023-01-26T15:21:21.157Z,48.95
2023-01-26T15:23:56.998Z,51.58
2023-01-26T15:26:33.933Z,49.92
2023-01-26T15:29:06.445Z,45.38
2023-01-26T15:31:39.760Z,43.08
2023-01-26T15:34:29.453Z,48.53
2023-01-26T15:37:02.563Z,47.33
2023-01-26T15:39:32.323Z,47.13
2023-01-26T15:42:23.581Z,43.17
2023-01-26T15:44:53.203Z,42.88
2023-01-26T15:47:23.051Z,48.45
2023-01-26T15:49:52.814Z,56.53
2023-01-26T15:52:27.203Z,50.92
2023-01-26T15:54:57.100Z,45.33
2023-01-26T15:57:26.827Z,44.05
2023-01-26T15:59:56.455Z,48.22
2023-01-26T16:02:26.341Z,48.70
2023-01-26T16:04:56.128Z,46.08
2023-01-26T16:07:27.758Z,53.50
2023-01-26T16:10:00.152Z,40.65
2023-01-26T16:12:32.342Z,55.33
2023-01-26T16:15:02.775Z,47.38
2023-01-26T16:17:32.619Z,49.00
2023-01-26T16:20:02.499Z,56.13
2023-01-26T16:22:32.199Z,52.13
2023-01-26T16:25:02.030Z,52.53
2023-01-26T16:27:31.802Z,55.47
2023-01-26T16:30:01.463Z,52.60
2023-01-26T16:32:32.053Z,58.28
2023-01-26T16:35:01.842Z,65.45
2023-01-26T16:37:31.800Z,76.50
2023-01-26T16:40:01.576Z,58.95
2023-01-26T16:42:31.359Z,60.50
2023-01-26T16:45:01.329Z,53.10
2023-01-26T16:47:31.212Z,60.25
2023-01-26T16:50:01.622Z,56.92
2023-01-26T16:52:31.578Z,54.33
2023-01-26T16:55:01.385Z,49.85
2023-01-26T16:57:31.289Z,64.53
2023-01-26T17:00:01.169Z,59.92
2023-01-26T17:02:35.570Z,51.88
2023-01-26T17:05:05.366Z,46.95
2023-01-26T17:07:35.269Z,50.72
2023-01-26T17:10:05.150Z,52.35
2023-01-26T17:12:35.087Z,53.65
2023-01-26T17:15:05.780Z,52.88
2023-01-26T17:17:35.706Z,69.53
2023-01-26T17:20:18.415Z,74.38
2023-01-26T17:22:50.274Z,75.53
2023-01-26T17:25:20.968Z,76.30
2023-01-26T17:27:51.690Z,69.13
2023-01-26T17:30:21.655Z,66.97
2023-01-26T17:32:51.402Z,67.22
2023-01-26T17:35:21.397Z,72.78
2023-01-26T17:37:51.648Z,67.15
2023-01-26T17:40:21.483Z,64.55
2023-01-26T17:42:51.283Z,76.45
2023-01-26T17:45:21.013Z,71.65
2023-01-26T17:47:50.837Z,81.03
2023-01-26T17:50:20.804Z,74.13
2023-01-26T17:52:50.541Z,69.88
2023-01-26T17:55:20.373Z,75.47
2023-01-26T17:57:50.323Z,61.63
2023-01-26T18:00:20.793Z,65.63
2023-01-26T18:02:50.652Z,60.80
2023-01-26T18:05:20.433Z,63.72
2023-01-26T18:07:50.973Z,72.50
2023-01-26T18:10:20.879Z,63.65
2023-01-26T18:12:51.678Z,65.63
2023-01-26T18:15:21.482Z,65.28
2023-01-26T18:17:51.279Z,66.90
2023-01-26T18:20:20.915Z,76.88
2023-01-26T18:22:50.664Z,69.68
2023-01-26T18:25:22.652Z,74.80
2023-01-26T18:27:52.392Z,68.95
2023-01-26T18:30:22.441Z,67.32
2023-01-26T18:32:52.221Z,60.40
2023-01-26T18:35:22.002Z,65.45
2023-01-26T18:37:51.953Z,58.92
2023-01-26T18:40:22.289Z,61.33
2023-01-26T18:42:55.460Z,66.97
2023-01-26T18:45:25.754Z,66.55
2023-01-26T18:47:55.765Z,63.72
2023-01-26T18:50:25.709Z,62.25
2023-01-26T18:52:55.532Z,50.90
2023-01-26T18:55:25.221Z,57.53
2023-01-26T18:57:56.876Z,55.33
2023-01-26T19:00:26.715Z,64.45
2023-01-26T19:02:56.650Z,54.95
2023-01-26T19:05:26.523Z,54.30
2023-01-26T19:07:57.132Z,65.90
2023-01-26T19:10:26.880Z,52.47
2023-01-26T19:12:56.788Z,57.15
2023-01-26T19:15:26.492Z,57.83
2023-01-26T19:17:56.254Z,58.28
2023-01-26T19:20:26.219Z,62.42
2023-01-26T19:22:59.164Z,59.70
2023-01-26T19:25:29.070Z,63.03
2023-01-26T19:27:58.807Z,61.92
2023-01-26T19:30:28.745Z,64.57
2023-01-26T19:33:18.066Z,68.80
2023-01-26T19:35:48.009Z,60.78
2023-01-26T19:38:18.186Z,63.17
2023-01-26T19:40:49.436Z,72.85
2023-01-26T19:43:20.884Z,72.45
2023-01-26T19:45:55.004Z,76.50
2023-01-26T19:48:29.812Z,79.53
2023-01-26T19:51:04.779Z,72.43
2023-01-26T19:53:36.080Z,75.85
2023-01-26T19:56:11.432Z,68.97
2023-01-26T19:58:41.872Z,69.20
2023-01-26T20:01:14.514Z,69.57
2023-01-26T20:03:44.377Z,79.35
2023-01-26T20:06:18.416Z,65.43
2023-01-26T20:08:49.443Z,71.00
2023-01-26T20:11:20.314Z,66.00
2023-01-26T20:13:50.058Z,67.22
2023-01-26T20:16:19.852Z,76.43
2023-01-26T20:18:49.555Z,65.57
2023-01-26T20:21:19.429Z,69.15
2023-01-26T20:23:54.981Z,70.55
2023-01-26T20:26:27.647Z,66.07
2023-01-26T20:28:58.367Z,63.80
2023-01-26T20:31:29.314Z,62.50
2023-01-26T20:34:00.122Z,57.65
2023-01-26T20:36:31.264Z,60.15
2023-01-26T20:39:01.244Z,74.00
2023-01-26T20:41:33.145Z,66.40
2023-01-26T20:44:06.057Z,58.42
2023-01-26T20:46:42.994Z,60.78
2023-01-26T20:49:16.315Z,66.68
2023-01-26T20:51:47.591Z,64.07
2023-01-26T20:54:18.921Z,65.47
2023-01-26T20:56:49.863Z,55.58
2023-01-26T20:59:24.465Z,62.95
2023-01-26T21:01:55.312Z,62.33
2023-01-26T21:04:25.412Z,62.10
2023-01-26T21:06:57.069Z,61.60
2023-01-26T21:09:27.836Z,59.90
2023-01-26T21:11:57.573Z,62.45
2023-01-26T21:14:27.450Z,65.82
2023-01-26T21:16:57.521Z,59.25
2023-01-26T21:19:27.447Z,66.78
2023-01-26T21:21:57.368Z,56.55
2023-01-26T21:24:27.458Z,62.72
2023-01-26T21:26:57.344Z,62.40
2023-01-26T21:29:27.167Z,61.30
2023-01-26T21:31:56.855Z,61.08
2023-01-26T21:34:26.541Z,64.70
2023-01-26T21:36:56.464Z,57.95
2023-01-26T21:39:26.365Z,59.05
2023-01-26T21:41:59.414Z,61.67
2023-01-26T21:44:31.694Z,57.35
2023-01-26T21:47:05.433Z,56.40
2023-01-26T21:49:35.192Z,56.88
2023-01-26T21:52:24.600Z,58.10
2023-01-26T21:54:54.513Z,56.05
2023-01-26T21:57:43.843Z,59.38
2023-01-26T22:00:14.201Z,55.88
2023-01-26T22:02:43.952Z,55.95
2023-01-26T22:05:13.766Z,63.42
2023-01-26T22:07:43.722Z,58.60
2023-01-26T22:10:15.113Z,52.63
2023-01-26T22:12:44.950Z,58.83
2023-01-26T22:15:15.663Z,62.08
2023-01-26T22:17:45.639Z,59.28
2023-01-26T22:20:15.621Z,54.45
2023-01-26T22:22:45.510Z,61.10
2023-01-26T22:25:15.483Z,59.28
2023-01-26T22:27:45.235Z,62.60
2023-01-26T22:30:15.393Z,59.60
2023-01-26T22:32:45.674Z,61.10
2023-01-26T22:35:15.484Z,59.83
2023-01-26T22:37:45.363Z,54.65
2023-01-26T22:40:16.223Z,56.08
2023-01-26T22:42:46.132Z,58.13
2023-01-26T22:45:16.463Z,61.95
2023-01-26T22:47:46.267Z,54.40
2023-01-26T22:50:17.285Z,58.45
2023-01-26T22:52:47.050Z,66.55
2023-01-26T22:55:16.882Z,56.60
2023-01-26T22:57:47.195Z,58.63
2023-01-26T23:00:17.274Z,55.55
2023-01-26T23:02:47.159Z,51.50
2023-01-26T23:05:17.069Z,62.67
2023-01-26T23:07:47.900Z,54.00
2023-01-26T23:10:19.121Z,56.60
2023-01-26T23:12:48.858Z,49.83
2023-01-26T23:15:18.778Z,57.58
2023-01-26T23:17:52.425Z,53.97
2023-01-26T23:20:23.978Z,52.92
2023-01-26T23:22:53.910Z,51.80
2023-01-26T23:25:43.206Z,54.50
2023-01-26T23:28:13.051Z,50.60
2023-01-26T23:30:42.829Z,54.63
2023-01-26T23:33:12.689Z,58.33
2023-01-26T23:35:42.614Z,55.10
2023-01-26T23:38:13.153Z,57.95
2023-01-26T23:40:43.696Z,60.70
2023-01-26T23:43:17.128Z,59.78
2023-01-26T23:45:49.044Z,56.80
2023-01-26T23:48:19.276Z,61.30
2023-01-26T23:50:49.079Z,51.70
2023-01-26T23:53:18.913Z,52.60
2023-01-26T23:55:49.548Z,56.50
2023-01-26T23:58:19.288Z,57.53
